createdAt,value
2019-02-27T00:00:09.147Z,99.99
2019-02-27T00:01:06.955Z,99.99
2019-02-27T00:02:06.845Z,99.99
2019-02-27T00:03:06.818Z,99.99
2019-02-27T00:04:06.755Z,99.99
2019-02-27T00:05:08.390Z,99.99
2019-02-27T00:06:06.677Z,99.99
2019-02-27T00:07:06.648Z,99.99
2019-02-27T00:08:06.590Z,99.99
2019-02-27T00:09:06.525Z,99.99
2019-02-27T00:10:06.816Z,99.99
2019-02-27T00:11:06.435Z,99.99
2019-02-27T00:12:06.406Z,99.99
2019-02-27T00:13:06.379Z,99.99
2019-02-27T00:14:06.308Z,99.99
2019-02-27T00:15:06.265Z,99.99
2019-02-27T00:16:06.210Z,99.99
2019-02-27T00:17:08.180Z,99.99
2019-02-27T00:18:06.152Z,99.99
2019-02-27T00:19:06.089Z,99.99
2019-02-27T00:20:06.043Z,99.99
2019-02-27T00:21:10.155Z,99.99
2019-02-27T00:22:05.966Z,99.99
2019-02-27T00:23:05.933Z,99.99
2019-02-27T00:24:05.891Z,99.99
2019-02-27T00:25:05.811Z,99.99
2019-02-27T00:26:08.748Z,99.99
2019-02-27T00:27:05.742Z,99.99
2019-02-27T00:28:05.687Z,99.99
2019-02-27T00:29:05.680Z,99.99
2019-02-27T00:30:05.938Z,99.99
2019-02-27T00:31:05.553Z,99.99
2019-02-27T00:32:05.520Z,99.99
2019-02-27T00:33:05.472Z,99.99
2019-02-27T00:34:05.429Z,99.99
2019-02-27T00:35:07.279Z,99.99
2019-02-27T00:36:05.329Z,99.99
2019-02-27T00:37:05.273Z,99.99
2019-02-27T00:38:05.241Z,99.99
2019-02-27T00:39:05.217Z,99.99
2019-02-27T00:40:05.625Z,99.99
2019-02-27T00:41:05.116Z,99.99
2019-02-27T00:42:05.061Z,99.99
2019-02-27T00:43:05.020Z,99.99
2019-02-27T00:44:05.022Z,99.99
2019-02-27T00:45:07.172Z,99.99
2019-02-27T00:46:04.892Z,99.99
2019-02-27T00:47:04.837Z,99.99
2019-02-27T00:48:04.816Z,99.99
2019-02-27T00:49:04.743Z,99.99
2019-02-27T00:50:06.545Z,99.99
2019-02-27T00:51:04.668Z,99.99
2019-02-27T00:52:04.621Z,99.99
2019-02-27T00:53:04.580Z,99.99
2019-02-27T00:54:04.527Z,99.99
2019-02-27T00:55:05.252Z,99.99
2019-02-27T00:56:04.431Z,99.99
2019-02-27T00:57:04.392Z,99.99
2019-02-27T00:58:04.354Z,99.99
2019-02-27T00:59:04.310Z,99.99
2019-02-27T01:00:06.508Z,99.99
2019-02-27T01:01:04.214Z,99.99
2019-02-27T01:02:04.178Z,99.99
2019-02-27T01:03:04.140Z,99.99
2019-02-27T01:04:04.095Z,99.99
2019-02-27T01:05:06.196Z,99.99
2019-02-27T01:06:04.004Z,99.99
2019-02-27T01:07:03.972Z,99.99
2019-02-27T01:08:03.901Z,99.99
2019-02-27T01:09:06.171Z,99.99
2019-02-27T01:10:03.813Z,99.99
2019-02-27T01:11:03.810Z,99.99
2019-02-27T01:12:03.729Z,99.99
2019-02-27T01:13:03.692Z,99.99
2019-02-27T01:14:04.148Z,99.99
2019-02-27T01:15:03.601Z,99.99
2019-02-27T01:16:03.549Z,99.99
2019-02-27T01:17:03.532Z,99.99
2019-02-27T01:18:03.458Z,99.99
2019-02-27T01:19:04.658Z,99.99
2019-02-27T01:20:03.363Z,99.99
2019-02-27T01:21:03.321Z,99.99
2019-02-27T01:22:03.291Z,99.99
2019-02-27T01:23:03.250Z,99.99
2019-02-27T01:24:03.218Z,99.99
2019-02-27T01:25:03.168Z,99.99
2019-02-27T01:26:03.107Z,99.99
2019-02-27T01:27:04.602Z,99.99
2019-02-27T01:28:03.006Z,99.99
2019-02-27T01:29:03.000Z,99.99
2019-02-27T01:30:02.916Z,99.99
2019-02-27T01:31:02.886Z,99.99
2019-02-27T01:32:02.833Z,99.99
2019-02-27T01:33:04.166Z,99.99
2019-02-27T01:34:02.743Z,99.99
2019-02-27T01:35:02.748Z,99.99
2019-02-27T01:36:02.653Z,99.99
2019-02-27T01:37:02.624Z,99.99
2019-02-27T01:38:05.009Z,99.99
2019-02-27T01:39:02.532Z,99.99
2019-02-27T01:40:02.479Z,99.99
2019-02-27T01:41:02.445Z,99.99
2019-02-27T01:42:02.392Z,99.99
2019-02-27T01:43:05.530Z,99.99
2019-02-27T01:44:02.306Z,99.99
2019-02-27T01:45:02.256Z,99.99
2019-02-27T01:46:02.230Z,99.99
2019-02-27T01:47:02.940Z,99.99
2019-02-27T01:48:02.112Z,99.99
2019-02-27T01:49:02.107Z,99.99
2019-02-27T01:50:02.043Z,99.99
2019-02-27T01:51:01.991Z,99.99
2019-02-27T01:52:02.236Z,99.99
2019-02-27T01:53:01.925Z,99.99
2019-02-27T01:54:01.850Z,99.99
2019-02-27T01:55:01.809Z,99.99
2019-02-27T01:56:01.754Z,99.99
2019-02-27T01:57:02.953Z,99.99
2019-02-27T01:58:01.678Z,99.99
2019-02-27T01:59:01.653Z,99.99
2019-02-27T02:00:01.581Z,99.99
2019-02-27T02:01:01.546Z,99.99
2019-02-27T02:02:03.529Z,99.99
2019-02-27T02:03:01.442Z,99.99
2019-02-27T02:04:01.427Z,99.99
2019-02-27T02:05:01.341Z,99.99
2019-02-27T02:06:01.306Z,99.99
2019-02-27T02:07:01.266Z,99.99
2019-02-27T02:08:01.217Z,99.99
2019-02-27T02:09:01.202Z,99.99
2019-02-27T02:10:01.163Z,99.99
2019-02-27T02:11:01.399Z,99.99
2019-02-27T02:12:01.036Z,99.99
2019-02-27T02:13:01.020Z,99.99
2019-02-27T02:14:00.959Z,99.99
2019-02-27T02:15:00.933Z,99.99
2019-02-27T02:16:01.487Z,99.99
2019-02-27T02:17:00.831Z,99.99
2019-02-27T02:18:00.769Z,99.99
2019-02-27T02:19:00.721Z,99.99
2019-02-27T02:20:00.684Z,99.99
2019-02-27T02:21:01.641Z,99.99
2019-02-27T02:22:00.605Z,99.99
2019-02-27T02:23:00.536Z,99.99
2019-02-27T02:24:00.501Z,99.99
2019-02-27T02:25:00.464Z,99.99
2019-02-27T02:26:01.264Z,99.99
2019-02-27T02:27:00.371Z,99.99
2019-02-27T02:28:00.343Z,99.99
2019-02-27T02:29:00.283Z,99.99
2019-02-27T02:30:00.498Z,99.99
2019-02-27T02:31:05.028Z,99.99
2019-02-27T02:32:00.151Z,99.99
2019-02-27T02:33:00.089Z,99.99
2019-02-27T02:34:05.159Z,99.99
2019-02-27T02:35:00.015Z,99.99
2019-02-27T02:35:59.998Z,99.99
2019-02-27T02:37:02.464Z,99.99
2019-02-27T02:37:59.860Z,99.99
2019-02-27T02:38:59.833Z,99.99
2019-02-27T02:39:59.822Z,99.99
2019-02-27T02:40:59.743Z,99.99
2019-02-27T02:41:59.684Z,99.99
2019-02-27T02:43:03.090Z,99.99
2019-02-27T02:43:59.600Z,99.99
2019-02-27T02:44:59.554Z,99.99
2019-02-27T02:45:59.538Z,99.99
2019-02-27T02:46:59.470Z,99.99
2019-02-27T02:47:59.449Z,99.99
2019-02-27T02:49:03.151Z,99.99
2019-02-27T02:49:59.350Z,99.99
2019-02-27T02:50:59.287Z,99.99
2019-02-27T02:52:04.541Z,99.99
2019-02-27T02:52:59.206Z,99.99
2019-02-27T02:54:01.782Z,99.99
2019-02-27T02:54:59.106Z,99.99
2019-02-27T02:55:59.079Z,99.99
2019-02-27T02:57:00.524Z,99.99
2019-02-27T02:57:58.982Z,99.99
2019-02-27T02:58:58.920Z,99.99
2019-02-27T03:00:00.151Z,99.99
2019-02-27T03:00:58.839Z,99.99
2019-02-27T03:01:58.791Z,99.99
2019-02-27T03:03:00.978Z,99.99
2019-02-27T03:03:58.694Z,99.99
2019-02-27T03:04:58.672Z,99.99
2019-02-27T03:05:59.679Z,99.99
2019-02-27T03:06:58.570Z,99.99
2019-02-27T03:07:58.532Z,99.99
2019-02-27T03:08:58.491Z,99.99
2019-02-27T03:09:58.428Z,99.99
2019-02-27T03:10:58.397Z,99.99
2019-02-27T03:11:58.332Z,99.99
2019-02-27T03:12:58.284Z,99.99
2019-02-27T03:13:58.273Z,99.99
2019-02-27T03:14:58.193Z,99.99
2019-02-27T03:16:04.272Z,99.99
2019-02-27T03:16:58.096Z,99.99
2019-02-27T03:17:58.063Z,99.99
2019-02-27T03:18:58.015Z,99.99
2019-02-27T03:19:58.001Z,99.99
2019-02-27T03:20:57.937Z,99.99
2019-02-27T03:22:03.250Z,99.99
2019-02-27T03:22:57.865Z,99.99
2019-02-27T03:23:57.800Z,99.99
2019-02-27T03:25:03.510Z,99.99
2019-02-27T03:25:57.696Z,99.99
2019-02-27T03:26:57.655Z,99.99
2019-02-27T03:27:57.619Z,99.99
2019-02-27T03:28:57.590Z,99.99
2019-02-27T03:29:57.511Z,99.99
2019-02-27T03:30:57.490Z,99.99
2019-02-27T03:32:00.375Z,99.99
2019-02-27T03:32:57.408Z,99.99
2019-02-27T03:34:05.719Z,99.99
2019-02-27T03:34:57.326Z,99.99
2019-02-27T03:35:59.889Z,99.99
2019-02-27T03:36:57.190Z,99.99
2019-02-27T03:37:57.163Z,99.99
2019-02-27T03:38:59.170Z,99.99
2019-02-27T03:39:57.089Z,99.99
2019-02-27T03:40:57.024Z,99.99
2019-02-27T03:41:59.335Z,99.99
2019-02-27T03:42:56.932Z,99.99
2019-02-27T03:43:56.883Z,99.99
2019-02-27T03:44:57.185Z,99.99
2019-02-27T03:45:56.796Z,99.99
2019-02-27T03:46:56.746Z,99.99
2019-02-27T03:47:56.694Z,99.99
2019-02-27T03:49:02.926Z,99.99
2019-02-27T03:49:56.637Z,99.99
2019-02-27T03:50:56.572Z,99.99
2019-02-27T03:51:59.691Z,99.99
2019-02-27T03:52:56.474Z,99.99
2019-02-27T03:53:56.439Z,99.99
2019-02-27T03:54:58.073Z,99.99
2019-02-27T03:55:56.363Z,99.99
2019-02-27T03:56:56.316Z,99.99
2019-02-27T03:57:56.240Z,99.99
2019-02-27T03:58:56.206Z,99.99
2019-02-27T03:59:56.150Z,99.99
2019-02-27T04:00:56.132Z,99.99
2019-02-27T04:01:56.053Z,99.99
2019-02-27T04:02:56.046Z,99.99
2019-02-27T04:03:56.004Z,99.99
2019-02-27T04:04:55.936Z,99.99
2019-02-27T04:05:55.888Z,99.99
2019-02-27T04:06:56.455Z,99.99
2019-02-27T04:07:55.788Z,99.99
2019-02-27T04:08:55.736Z,99.99
2019-02-27T04:09:56.431Z,99.99
2019-02-27T04:10:55.684Z,99.99
2019-02-27T04:11:55.629Z,99.99
2019-02-27T04:12:55.571Z,99.99
2019-02-27T04:14:03.328Z,99.99
2019-02-27T04:14:55.474Z,99.99
2019-02-27T04:15:55.453Z,99.99
2019-02-27T04:16:55.391Z,99.99
2019-02-27T04:17:55.331Z,99.99
2019-02-27T04:18:55.291Z,99.99
2019-02-27T04:19:55.237Z,99.99
2019-02-27T04:20:55.203Z,99.99
2019-02-27T04:22:00.476Z,99.99
2019-02-27T04:22:55.115Z,99.99
2019-02-27T04:23:55.070Z,99.99
2019-02-27T04:24:56.855Z,99.99
2019-02-27T04:25:54.973Z,99.99
2019-02-27T04:26:54.945Z,99.99
2019-02-27T04:27:55.611Z,99.99
2019-02-27T04:28:54.827Z,99.99
2019-02-27T04:29:54.785Z,99.99
2019-02-27T04:30:54.730Z,99.99
2019-02-27T04:31:54.703Z,99.99
2019-02-27T04:32:54.676Z,99.99
2019-02-27T04:33:59.833Z,99.99
2019-02-27T04:34:54.558Z,99.99
2019-02-27T04:35:54.507Z,99.99
2019-02-27T04:36:54.500Z,99.99
2019-02-27T04:37:54.912Z,99.99
2019-02-27T04:38:54.376Z,99.99
2019-02-27T04:39:54.355Z,99.99
2019-02-27T04:40:54.274Z,99.99
2019-02-27T04:41:54.250Z,99.99
2019-02-27T04:42:54.193Z,99.99
2019-02-27T04:43:54.155Z,99.99
2019-02-27T04:44:54.132Z,99.99
2019-02-27T04:45:54.047Z,99.99
2019-02-27T04:46:55.088Z,99.99
2019-02-27T04:47:53.968Z,99.99
2019-02-27T04:48:53.920Z,99.99
2019-02-27T04:49:53.914Z,99.99
2019-02-27T04:50:53.822Z,99.99
2019-02-27T04:51:53.778Z,99.99
2019-02-27T04:52:57.604Z,99.99
2019-02-27T04:53:53.682Z,99.99
2019-02-27T04:54:53.650Z,99.99
2019-02-27T04:55:53.625Z,99.99
2019-02-27T04:56:55.088Z,99.99
2019-02-27T04:57:53.501Z,99.99
2019-02-27T04:58:53.475Z,99.99
2019-02-27T04:59:53.415Z,99.99
2019-02-27T05:00:53.393Z,99.99
2019-02-27T05:01:53.316Z,99.99
2019-02-27T05:02:53.999Z,99.99
2019-02-27T05:03:53.241Z,99.99
2019-02-27T05:04:53.204Z,99.99
2019-02-27T05:05:53.134Z,99.99
2019-02-27T05:06:53.117Z,99.99
2019-02-27T05:07:54.330Z,99.99
2019-02-27T05:08:53.015Z,99.99
2019-02-27T05:09:52.976Z,99.99
2019-02-27T05:10:52.927Z,99.99
2019-02-27T05:11:52.857Z,99.99
2019-02-27T05:12:52.810Z,99.99
2019-02-27T05:13:54.332Z,99.99
2019-02-27T05:14:52.718Z,99.99
2019-02-27T05:15:52.703Z,99.99
2019-02-27T05:16:52.643Z,99.99
2019-02-27T05:17:53.019Z,99.99
2019-02-27T05:18:52.555Z,99.99
2019-02-27T05:19:52.538Z,99.99
2019-02-27T05:20:52.460Z,99.99
2019-02-27T05:21:53.088Z,99.99
2019-02-27T05:22:52.344Z,99.99
2019-02-27T05:23:52.327Z,99.99
2019-02-27T05:24:52.258Z,99.99
2019-02-27T05:25:52.240Z,99.99
2019-02-27T05:26:52.187Z,99.99
2019-02-27T05:27:52.132Z,99.99
2019-02-27T05:28:52.094Z,99.99
2019-02-27T05:29:52.035Z,99.99
2019-02-27T05:30:52.018Z,99.99
2019-02-27T05:31:53.153Z,99.99
2019-02-27T05:32:51.912Z,99.99
2019-02-27T05:33:51.862Z,99.99
2019-02-27T05:34:51.796Z,99.99
2019-02-27T05:35:51.766Z,99.99
2019-02-27T05:36:51.748Z,99.99
2019-02-27T05:37:51.673Z,99.99
2019-02-27T05:38:51.624Z,99.99
2019-02-27T05:39:51.758Z,99.99
2019-02-27T05:40:51.540Z,99.99
2019-02-27T05:41:51.506Z,99.99
2019-02-27T05:42:51.436Z,99.99
2019-02-27T05:43:51.412Z,99.99
2019-02-27T05:44:55.534Z,99.99
2019-02-27T05:45:51.294Z,99.99
2019-02-27T05:46:51.249Z,99.99
2019-02-27T05:47:51.203Z,99.99
2019-02-27T05:48:53.361Z,99.99
2019-02-27T05:49:51.114Z,99.99
2019-02-27T05:50:51.079Z,99.99
2019-02-27T05:51:51.033Z,99.99
2019-02-27T05:52:51.002Z,99.99
2019-02-27T05:53:50.927Z,99.99
2019-02-27T05:54:50.877Z,99.99
2019-02-27T05:55:50.834Z,99.99
2019-02-27T05:56:50.786Z,99.99
2019-02-27T05:57:50.772Z,99.99
2019-02-27T05:58:50.721Z,99.99
2019-02-27T05:59:50.664Z,99.99
2019-02-27T06:00:50.604Z,99.99
2019-02-27T06:01:50.579Z,99.99
2019-02-27T06:02:50.512Z,99.99
2019-02-27T06:03:52.255Z,99.99
2019-02-27T06:04:50.430Z,99.99
2019-02-27T06:05:50.374Z,99.99
2019-02-27T06:06:50.324Z,99.99
2019-02-27T06:07:50.315Z,99.99
2019-02-27T06:08:50.242Z,99.99
2019-02-27T06:09:50.212Z,99.99
2019-02-27T06:10:55.106Z,99.99
2019-02-27T06:11:50.105Z,99.99
2019-02-27T06:12:50.092Z,99.99
2019-02-27T06:13:50.008Z,99.99
2019-02-27T06:14:49.989Z,99.99
2019-02-27T06:15:49.922Z,99.99
2019-02-27T06:16:49.871Z,99.99
2019-02-27T06:17:49.962Z,99.99
2019-02-27T06:18:49.794Z,99.99
2019-02-27T06:19:49.755Z,99.99
2019-02-27T06:20:49.679Z,99.99
2019-02-27T06:21:49.635Z,99.99
2019-02-27T06:22:49.592Z,99.99
2019-02-27T06:23:49.547Z,99.99
2019-02-27T06:24:49.521Z,99.99
2019-02-27T06:25:49.455Z,99.99
2019-02-27T06:26:49.398Z,99.99
2019-02-27T06:27:49.379Z,99.99
2019-02-27T06:28:49.338Z,99.99
2019-02-27T06:29:49.301Z,99.99
2019-02-27T06:30:49.219Z,99.99
2019-02-27T06:31:49.179Z,99.99
2019-02-27T06:32:49.128Z,99.99
2019-02-27T06:33:49.102Z,99.99
2019-02-27T06:34:49.039Z,99.99
2019-02-27T06:35:49.502Z,99.99
2019-02-27T06:36:48.984Z,99.99
2019-02-27T06:37:50.760Z,99.99
2019-02-27T06:38:48.841Z,99.99
2019-02-27T06:39:48.806Z,99.99
2019-02-27T06:40:48.774Z,99.99
2019-02-27T06:41:49.782Z,99.99
2019-02-27T06:42:53.510Z,99.99
2019-02-27T06:43:48.630Z,99.99
2019-02-27T06:44:48.577Z,99.99
2019-02-27T06:45:48.565Z,99.99
2019-02-27T06:46:51.038Z,99.99
2019-02-27T06:47:48.439Z,99.99
2019-02-27T06:48:48.388Z,99.99
2019-02-27T06:49:49.014Z,99.99
2019-02-27T06:50:48.297Z,99.99
2019-02-27T06:51:48.272Z,99.99
2019-02-27T06:52:48.205Z,99.99
2019-02-27T06:53:48.147Z,99.99
2019-02-27T06:54:52.143Z,99.99
2019-02-27T06:55:48.079Z,99.99
2019-02-27T06:56:48.064Z,99.99
2019-02-27T06:57:47.981Z,99.99
2019-02-27T06:58:50.119Z,99.99
2019-02-27T06:59:47.884Z,99.99
2019-02-27T07:00:47.829Z,99.99
2019-02-27T07:01:48.113Z,99.99
2019-02-27T07:02:47.762Z,99.99
2019-02-27T07:03:47.711Z,99.99
2019-02-27T07:04:47.652Z,99.99
2019-02-27T07:05:48.272Z,99.99
2019-02-27T07:06:47.584Z,99.99
2019-02-27T07:07:47.527Z,99.99
2019-02-27T07:08:47.481Z,98.59
2019-02-27T07:09:47.443Z,96.26
2019-02-27T07:10:47.388Z,94.13
2019-02-27T07:11:48.947Z,91.37
2019-02-27T07:12:47.285Z,88.75
2019-02-27T07:13:47.281Z,88.75
2019-02-27T07:14:47.208Z,87.13
2019-02-27T07:15:48.168Z,87.42
2019-02-27T07:16:47.168Z,87.04
2019-02-27T07:17:47.082Z,86.18
2019-02-27T07:18:47.061Z,84.80
2019-02-27T07:19:47.447Z,84.70
2019-02-27T07:20:46.955Z,85.47
2019-02-27T07:21:46.900Z,84.23
2019-02-27T07:22:46.891Z,83.41
2019-02-27T07:23:46.847Z,83.22
2019-02-27T07:24:46.779Z,82.18
2019-02-27T07:25:46.733Z,82.08
2019-02-27T07:26:47.544Z,81.98
2019-02-27T07:27:46.657Z,81.79
2019-02-27T07:28:46.639Z,81.26
2019-02-27T07:29:46.576Z,80.79
2019-02-27T07:30:46.550Z,79.93
2019-02-27T07:31:46.488Z,80.12
2019-02-27T07:32:46.484Z,79.89
2019-02-27T07:33:46.402Z,80.55
2019-02-27T07:34:46.763Z,81.03
2019-02-27T07:35:46.326Z,80.65
2019-02-27T07:36:46.284Z,80.65
2019-02-27T07:37:48.021Z,80.41
2019-02-27T07:38:46.224Z,80.12
2019-02-27T07:39:46.168Z,79.74
2019-02-27T07:40:46.145Z,79.64
2019-02-27T07:41:46.081Z,78.59
2019-02-27T07:42:46.082Z,77.87
2019-02-27T07:43:46.026Z,76.92
2019-02-27T07:44:45.988Z,76.64
2019-02-27T07:45:46.229Z,76.77
2019-02-27T07:46:45.881Z,76.77
2019-02-27T07:47:45.874Z,76.57
2019-02-27T07:48:45.891Z,76.39
2019-02-27T07:49:45.777Z,75.24
2019-02-27T07:50:48.134Z,75.43
2019-02-27T07:51:45.687Z,75.24
2019-02-27T07:52:45.641Z,75.15
2019-02-27T07:53:45.603Z,75.09
2019-02-27T07:54:45.593Z,74.99
2019-02-27T07:55:47.317Z,74.80
2019-02-27T07:56:45.498Z,73.56
2019-02-27T07:57:45.448Z,74.13
2019-02-27T07:58:45.416Z,73.28
2019-02-27T07:59:45.376Z,73.37
2019-02-27T08:00:47.086Z,72.99
2019-02-27T08:01:45.301Z,72.71
2019-02-27T08:02:45.259Z,73.12
2019-02-27T08:03:45.826Z,72.64
2019-02-27T08:04:45.180Z,72.17
2019-02-27T08:05:45.173Z,71.31
2019-02-27T08:06:45.138Z,72.17
2019-02-27T08:07:48.641Z,71.69
2019-02-27T08:08:45.043Z,71.69
2019-02-27T08:09:44.996Z,71.98
2019-02-27T08:10:45.374Z,72.07
2019-02-27T08:11:47.319Z,71.15
2019-02-27T08:12:44.894Z,70.92
2019-02-27T08:13:44.853Z,70.77
2019-02-27T08:14:44.805Z,70.48
2019-02-27T08:15:44.768Z,69.72
2019-02-27T08:16:44.751Z,70.14
2019-02-27T08:17:44.722Z,69.18
2019-02-27T08:18:44.662Z,68.32
2019-02-27T08:19:45.299Z,68.41
2019-02-27T08:20:44.584Z,67.75
2019-02-27T08:21:44.573Z,67.08
2019-02-27T08:22:44.518Z,68.32
2019-02-27T08:23:44.485Z,68.26
2019-02-27T08:24:44.468Z,66.83
2019-02-27T08:25:44.405Z,65.68
2019-02-27T08:26:44.359Z,65.90
2019-02-27T08:27:44.335Z,65.42
2019-02-27T08:28:44.299Z,65.23
2019-02-27T08:29:44.300Z,65.04
2019-02-27T08:30:44.219Z,64.66
2019-02-27T08:31:44.192Z,64.56
2019-02-27T08:32:44.147Z,65.04
2019-02-27T08:33:44.121Z,65.04
2019-02-27T08:34:44.104Z,65.42
2019-02-27T08:35:44.048Z,65.74
2019-02-27T08:36:44.011Z,64.69
2019-02-27T08:37:43.975Z,62.93
2019-02-27T08:38:43.961Z,61.11
2019-02-27T08:39:43.902Z,61.66
2019-02-27T08:40:43.870Z,61.76
2019-02-27T08:41:43.827Z,61.57
2019-02-27T08:42:43.813Z,61.94
2019-02-27T08:43:43.776Z,62.14
2019-02-27T08:44:45.756Z,63.10
2019-02-27T08:45:43.683Z,62.90
2019-02-27T08:46:43.674Z,62.46
2019-02-27T08:47:44.302Z,61.69
2019-02-27T08:48:43.621Z,62.65
2019-02-27T08:49:43.569Z,62.36
2019-02-27T08:50:43.512Z,62.17
2019-02-27T08:51:43.488Z,62.01
2019-02-27T08:52:44.529Z,60.86
2019-02-27T08:53:43.408Z,59.52
2019-02-27T08:54:43.418Z,58.08
2019-02-27T08:55:43.361Z,58.65
2019-02-27T08:56:44.037Z,59.04
2019-02-27T08:57:43.297Z,57.79
2019-02-27T08:58:43.255Z,57.79
2019-02-27T08:59:43.235Z,58.27
2019-02-27T09:00:47.142Z,56.74
2019-02-27T09:01:43.153Z,55.62
2019-02-27T09:02:43.111Z,55.23
2019-02-27T09:03:43.088Z,55.45
2019-02-27T09:04:45.394Z,53.44
2019-02-27T09:05:43.023Z,52.60
2019-02-27T09:06:43.044Z,51.16
2019-02-27T09:07:43.180Z,50.39
2019-02-27T09:08:44.041Z,49.91
2019-02-27T09:09:42.970Z,51.16
2019-02-27T09:10:42.878Z,51.35
2019-02-27T09:11:42.947Z,51.45
2019-02-27T09:12:45.384Z,51.47
2019-02-27T09:13:42.775Z,50.70
2019-02-27T09:14:42.719Z,50.87
2019-02-27T09:15:42.712Z,50.78
2019-02-27T09:16:42.661Z,49.74
2019-02-27T09:17:42.629Z,49.29
2019-02-27T09:18:44.168Z,48.49
2019-02-27T09:19:45.443Z,48.23
2019-02-27T09:20:42.543Z,46.96
2019-02-27T09:21:42.503Z,47.63
2019-02-27T09:22:42.546Z,46.41
2019-02-27T09:23:42.649Z,46.02
2019-02-27T09:24:42.461Z,45.83
2019-02-27T09:25:42.432Z,44.22
2019-02-27T09:26:42.474Z,42.68
2019-02-27T09:27:42.310Z,41.16
2019-02-27T09:28:44.484Z,41.28
2019-02-27T09:29:42.560Z,40.91
2019-02-27T09:30:42.264Z,40.14
2019-02-27T09:31:50.532Z,39.66
2019-02-27T09:32:43.353Z,38.76
2019-02-27T09:33:42.168Z,39.62
2019-02-27T09:34:42.212Z,41.18
2019-02-27T09:35:42.137Z,41.08
2019-02-27T09:36:43.354Z,40.41
2019-02-27T09:37:41.974Z,39.66
2019-02-27T09:38:41.981Z,39.29
2019-02-27T09:39:41.931Z,39.87
2019-02-27T09:40:41.885Z,38.59
2019-02-27T09:41:46.133Z,40.88
2019-02-27T09:42:41.799Z,40.99
2019-02-27T09:43:41.786Z,41.08
2019-02-27T09:44:41.733Z,39.76
2019-02-27T09:45:46.198Z,38.87
2019-02-27T09:46:41.779Z,41.08
2019-02-27T09:47:41.676Z,39.18
2019-02-27T09:48:41.608Z,37.64
2019-02-27T09:49:41.624Z,37.18
2019-02-27T09:50:41.735Z,37.27
2019-02-27T09:51:41.541Z,36.61
2019-02-27T09:52:41.510Z,36.41
2019-02-27T09:53:41.460Z,37.26
2019-02-27T09:54:41.409Z,37.37
2019-02-27T09:55:41.520Z,38.04
2019-02-27T09:56:41.349Z,38.14
2019-02-27T09:57:41.623Z,37.64
2019-02-27T09:58:45.050Z,38.10
2019-02-27T09:59:42.333Z,38.78
2019-02-27T10:00:41.900Z,38.51
2019-02-27T10:01:41.389Z,37.85
2019-02-27T10:02:43.154Z,37.19
2019-02-27T10:03:41.158Z,36.71
2019-02-27T10:04:41.110Z,36.83
2019-02-27T10:05:41.125Z,36.83
2019-02-27T10:06:42.781Z,36.07
2019-02-27T10:07:41.004Z,35.27
2019-02-27T10:08:40.962Z,35.94
2019-02-27T10:09:40.932Z,35.94
2019-02-27T10:10:44.727Z,36.89
2019-02-27T10:11:40.923Z,36.97
2019-02-27T10:12:42.291Z,38.20
2019-02-27T10:13:40.846Z,39.26
2019-02-27T10:14:40.773Z,39.04
2019-02-27T10:15:40.768Z,38.85
2019-02-27T10:16:40.729Z,38.56
2019-02-27T10:17:41.141Z,39.53
2019-02-27T10:18:40.675Z,39.24
2019-02-27T10:19:40.628Z,38.39
2019-02-27T10:20:40.580Z,38.70
2019-02-27T10:21:41.333Z,39.06
2019-02-27T10:22:40.522Z,38.49
2019-02-27T10:23:40.529Z,38.66
2019-02-27T10:24:40.481Z,39.91
2019-02-27T10:25:43.288Z,40.89
2019-02-27T10:26:40.392Z,39.76
2019-02-27T10:27:40.352Z,38.89
2019-02-27T10:28:40.328Z,38.33
2019-02-27T10:29:40.324Z,38.93
2019-02-27T10:30:40.262Z,37.58
2019-02-27T10:31:40.241Z,36.61
2019-02-27T10:32:40.217Z,36.73
2019-02-27T10:33:42.993Z,35.86
2019-02-27T10:34:40.164Z,35.42
2019-02-27T10:35:40.108Z,35.11
2019-02-27T10:36:40.081Z,35.11
2019-02-27T10:37:40.143Z,35.02
2019-02-27T10:38:40.563Z,35.08
2019-02-27T10:39:39.976Z,35.38
2019-02-27T10:40:39.973Z,35.64
2019-02-27T10:41:39.949Z,36.51
2019-02-27T10:42:39.905Z,37.37
2019-02-27T10:43:39.857Z,37.19
2019-02-27T10:44:39.830Z,37.29
2019-02-27T10:45:39.821Z,36.93
2019-02-27T10:46:39.791Z,36.94
2019-02-27T10:47:39.989Z,35.96
2019-02-27T10:48:39.713Z,35.86
2019-02-27T10:49:39.675Z,36.07
2019-02-27T10:50:39.664Z,35.40
2019-02-27T10:51:41.529Z,34.53
2019-02-27T10:52:39.589Z,34.74
2019-02-27T10:53:39.571Z,35.59
2019-02-27T10:54:39.974Z,35.28
2019-02-27T10:55:39.488Z,35.30
2019-02-27T10:56:39.451Z,36.29
2019-02-27T10:57:39.424Z,35.02
2019-02-27T10:58:39.385Z,36.17
2019-02-27T10:59:39.392Z,35.59
2019-02-27T11:00:39.329Z,35.11
2019-02-27T11:01:39.350Z,35.17
2019-02-27T11:02:39.283Z,36.04
2019-02-27T11:03:39.247Z,37.21
2019-02-27T11:04:39.608Z,36.46
2019-02-27T11:05:39.187Z,35.22
2019-02-27T11:06:39.173Z,35.03
2019-02-27T11:07:39.112Z,35.36
2019-02-27T11:08:39.099Z,34.08
2019-02-27T11:09:41.263Z,33.78
2019-02-27T11:10:39.056Z,34.92
2019-02-27T11:11:39.015Z,35.22
2019-02-27T11:12:38.980Z,35.21
2019-02-27T11:13:38.932Z,35.02
2019-02-27T11:14:38.913Z,35.38
2019-02-27T11:15:41.531Z,35.78
2019-02-27T11:16:38.881Z,36.48
2019-02-27T11:17:38.809Z,36.19
2019-02-27T11:18:38.771Z,35.61
2019-02-27T11:19:38.771Z,35.61
2019-02-27T11:20:38.722Z,35.32
2019-02-27T11:21:38.714Z,35.42
2019-02-27T11:22:38.657Z,35.52
2019-02-27T11:23:40.925Z,35.11
2019-02-27T11:24:38.590Z,36.07
2019-02-27T11:25:38.563Z,36.57
2019-02-27T11:26:38.542Z,35.78
2019-02-27T11:27:38.945Z,36.19
2019-02-27T11:28:38.480Z,35.61
2019-02-27T11:29:38.473Z,35.11
2019-02-27T11:30:38.407Z,36.57
2019-02-27T11:31:38.376Z,35.44
2019-02-27T11:32:38.346Z,34.55
2019-02-27T11:33:38.313Z,34.42
2019-02-27T11:34:38.318Z,35.28
2019-02-27T11:35:38.290Z,37.13
2019-02-27T11:36:38.920Z,37.23
2019-02-27T11:37:38.236Z,36.38
2019-02-27T11:38:38.159Z,36.67
2019-02-27T11:39:38.130Z,36.19
2019-02-27T11:40:41.752Z,36.75
2019-02-27T11:41:38.075Z,37.33
2019-02-27T11:42:38.049Z,37.13
2019-02-27T11:43:40.791Z,35.21
2019-02-27T11:44:38.013Z,35.21
2019-02-27T11:45:37.951Z,35.67
2019-02-27T11:46:38.231Z,35.94
2019-02-27T11:47:37.942Z,36.41
2019-02-27T11:48:37.888Z,37.37
2019-02-27T11:49:38.777Z,37.68
2019-02-27T11:50:37.797Z,37.12
2019-02-27T11:51:37.777Z,37.12
2019-02-27T11:52:37.754Z,36.55
2019-02-27T11:53:37.733Z,36.15
2019-02-27T11:54:37.695Z,35.86
2019-02-27T11:55:37.654Z,36.35
2019-02-27T11:56:37.620Z,36.54
2019-02-27T11:57:37.589Z,36.36
2019-02-27T11:58:38.505Z,36.07
2019-02-27T11:59:37.544Z,37.63
2019-02-27T12:00:37.532Z,37.35
2019-02-27T12:01:37.473Z,36.77
2019-02-27T12:02:38.022Z,35.90
2019-02-27T12:03:37.411Z,35.98
2019-02-27T12:04:37.402Z,36.09
2019-02-27T12:05:37.344Z,35.59
2019-02-27T12:06:41.300Z,36.15
2019-02-27T12:07:37.295Z,37.12
2019-02-27T12:08:37.271Z,36.83
2019-02-27T12:09:37.264Z,37.12
2019-02-27T12:10:37.204Z,37.41
2019-02-27T12:11:37.166Z,38.87
2019-02-27T12:12:37.146Z,37.04
2019-02-27T12:13:37.114Z,36.94
2019-02-27T12:14:37.074Z,36.57
2019-02-27T12:15:37.102Z,36.09
2019-02-27T12:16:37.020Z,35.52
2019-02-27T12:17:36.989Z,35.30
2019-02-27T12:18:36.960Z,35.88
2019-02-27T12:19:36.935Z,36.83
2019-02-27T12:20:36.921Z,37.77
2019-02-27T12:21:36.871Z,38.56
2019-02-27T12:22:36.849Z,38.18
2019-02-27T12:23:36.802Z,37.50
2019-02-27T12:24:36.787Z,37.87
2019-02-27T12:25:36.767Z,38.18
2019-02-27T12:26:37.658Z,37.68
2019-02-27T12:27:48.712Z,37.77
2019-02-27T12:28:36.651Z,37.19
2019-02-27T12:29:36.624Z,37.39
2019-02-27T12:30:37.337Z,37.68
2019-02-27T12:31:36.569Z,37.37
2019-02-27T12:32:36.539Z,37.27
2019-02-27T12:33:36.511Z,37.18
2019-02-27T12:34:37.201Z,37.08
2019-02-27T12:35:36.452Z,37.58
2019-02-27T12:36:36.431Z,38.54
2019-02-27T12:37:36.385Z,38.56
2019-02-27T12:38:36.378Z,38.37
2019-02-27T12:39:36.350Z,37.02
2019-02-27T12:40:36.297Z,36.81
2019-02-27T12:41:36.262Z,37.37
2019-02-27T12:42:37.559Z,37.76
2019-02-27T12:43:36.196Z,37.66
2019-02-27T12:44:36.212Z,38.43
2019-02-27T12:45:36.137Z,38.24
2019-02-27T12:46:37.039Z,38.16
2019-02-27T12:47:37.720Z,37.96
2019-02-27T12:48:36.051Z,37.48
2019-02-27T12:49:36.041Z,37.66
2019-02-27T12:50:35.999Z,38.04
2019-02-27T12:51:38.295Z,37.85